プライア の空港の天気 - METARとTAF

プライア国際空港 ( GVNP / RAI ) - カーボベルデ サンティアゴ島, プライア
飛行場実況気象(Metar)
観測時間02/01 13:00 CVT (02/01 14:00 UTC)
風向・風速北北東 10m/s
視程10km以上
天気現象
少しの雲 雲底高度 790m
気温24℃
湿度61%
気圧1015hPa
METARGVNP 011400Z 02019KT 9999 FEW026 24/16 Q1015 NOSIG
過去の天気等 Google飛行場航空写真 Wunderground天気予報

過去48時間のMETAR

飛行場予報(TAF)
発表時間: 2/01 10:00 CVT (2/01 11:00 UTC)
予報対象時間: 1日11時 CVT ~ 2日17時 CVT
風向・風速北東 9m/s
視程10km以上
少しの雲 雲底高度 550m
1日13時 CVT ~ 1日19時 CVT に 確率 40% で一時的に
風向・風速北北東 9m/s 瞬間風速 14m/s
TAF GVNP 011100Z 0112/0218 04018KT 9999 FEW018
PROB40 TEMPO 0114/0120 03018G28KT